Portada
METAR-TAF:

METAR-TAF

Aeropuertos :

Turín, Italia

latitud: 45-05-20N, longitud: 007-36-20E, altitud: 288 m

Observación

El informe se hizo hace 11 horas y 30 minutos, a las 15:50 UTC
Viento 5 kt del sur-suroeste
Temperatura 20°C
Humedad 43%
Presión 1016 hPa
Visibilidad 10 km o más
sin nubes por debajo de 1500 m y sin presencia de cumulonimbus.

METAR: LIMA 241550Z 20005KT CAVOK 20/07 Q1016

Hora: 04:20 (03:20 UTC)


TAF: falta

Observaciones y pronósticos meteorológicos de más de 4000 aeropuertos (mensajes METAR y TAF).

Los puntos amarillos y rojos representan las estaciones disponibles.

Ponga el ratón en el punto deseado para ver el nombre de la estación.

Haga clic para ver las observaciones y los pronósticos meteorológicos.

Para cambiar el mapa : haga clic en los botones verdes con una cruz de color negro para hacer un zoom, en el botón verde con un guión para alejar o en las flechas verdes para mapas adyacentes.


METAR-TAF: